Marfa's Hourly Summary for Sunday, August 30, 2026
Hour Temp
(f)
RH
(%)
Solar Rad.
(MJ/m2)
Rainfall
(in)
Wind
(mph)
Battery
(volts)
8/30/2026 12:00 AM 82 43 0 0 8.71 0
8/30/2026 1:00 AM 80 44 0 0 6.51 0
8/30/2026 2:00 AM 78 46 0 0 5.42 0
8/30/2026 3:00 AM 77 48 0 0 4.91 0
8/30/2026 4:00 AM 76 49 0 0 4.32 0
8/30/2026 5:00 AM 74 51 0 0 3.09 0
8/30/2026 6:00 AM 74 52 0 0 1.93 0
8/30/2026 7:00 AM 72 55 0 0 3.17 0
8/30/2026 8:00 AM 72 54 0.04 0 0.36 0
8/30/2026 9:00 AM 78 45 0.16 0 6.24 0
8/30/2026 10:00 AM 82 39 0.31 0 9.2 0
8/30/2026 11:00 AM 85 36 0.46 0 7.33 0
8/30/2026 12:00 PM 87 31 0.6 0 7.51 0
8/30/2026 1:00 PM 89 28 0.7 0 7.43 0
8/30/2026 2:00 PM 92 21 0.81 0 3.32 0
8/30/2026 3:00 PM 94 24 0.84 0 2.33 0
8/30/2026 4:00 PM 96 16 0.75 0 4.92 0
8/30/2026 5:00 PM 95 23 0.66 0 6.34 0
8/30/2026 6:00 PM 95 21 0.43 0 6.82 0
8/30/2026 7:00 PM 94 21 0.24 0 7.96 0
8/30/2026 8:00 PM 91 23 0.04 0 8.16 0
8/30/2026 9:00 PM 88 25 0 0 7.63 0
8/30/2026 10:00 PM 86 31 0 0 10.53 0
8/30/2026 11:00 PM 84 36 0 0 10.59 0
Data Summary 84 35 6.04 0.00 6.03 0.00